Florence, Missouri
Current Conditions -  °F | °C
As of 6:53 PM on Saturday 20 Dec 2014 (Local Time) from KDMO Reporting Station
Overcast Overcast  
Wind Chill: 35°   Ceiling: 1700
Heat Index: 41°   Visibility: 10mi
Dew Point: 34°   Wind: 9mph
Humidity: 76%   Direction: 210°SSW
Pressure: 30.19"   Gusts: NA
Location:  38.59°N, 92.98°W
Report Text: KDMO 210053Z AUTO 21008KT 10SM OVC017 05/01 A3019 RMK AO2 SLP229 T00500011
Loading
Personal Weather Stations






























Interactive Weather Map New forecast layout! Learn more

10-Day Weather Forecast

Advertisements
Track Severe Weather on mobile